Time;durP1;ratioP1;P1;durP2;ratioP2;P2;SDS_P1;SDS_P2;PMS_P1;PMS_P2;Temp;Humidity;BMP_temperature;BMP_pressure;BME280_temperature;BME280_humidity;BME280_pressure;Samples;Min_cycle;Max_cycle;Signal;HPM_P1;HPM_P2
2021/07/14 07:21:34;;;;;;;4.03;3.73;;;16.50;99.90;;;;;;6240141;22;20840;-78
2021/07/14 07:24:10;;;;;;;3.43;3.13;;;16.60;99.90;;;;;;6234305;23;20399;-84
2021/07/14 07:26:37;;;;;;;5.70;3.60;;;16.70;99.90;;;;;;6231462;23;20862;-83
2021/07/14 07:39:30;;;;;;;4.07;3.50;;;17.00;99.90;;;;;;6208229;23;20425;-83
2021/07/14 07:42:55;;;;;;;3.87;3.57;;;17.10;99.90;;;;;;6224556;23;20890;-83
2021/07/14 07:51:29;;;;;;;5.70;4.40;;;17.20;99.90;;;;;;6232439;23;20453;-84
2021/07/14 07:53:57;;;;;;;4.70;4.30;;;17.30;99.90;;;;;;6230581;23;20482;-84
2021/07/14 07:56:29;;;;;;;5.30;3.70;;;17.30;99.90;;;;;;6231033;23;20441;-84
2021/07/14 07:58:56;;;;;;;3.93;3.60;;;17.30;99.90;;;;;;6225778;23;20414;-85
2021/07/14 08:01:24;;;;;;;4.27;3.87;;;17.30;99.90;;;;;;6219938;23;20493;-85
2021/07/14 08:03:53;;;;;;;4.50;4.20;;;17.30;99.90;;;;;;6219439;23;20756;-85
2021/07/14 08:06:20;;;;;;;5.20;3.40;;;17.30;99.90;;;;;;6219573;23;20439;-84
2021/07/14 08:08:51;;;;;;;15.10;6.60;;;17.40;99.90;;;;;;6219903;23;20395;-84
2021/07/14 08:11:18;;;;;;;4.47;3.47;;;17.40;99.90;;;;;;6219014;23;20768;-84
2021/07/14 08:13:45;;;;;;;4.93;4.40;;;17.50;99.90;;;;;;6219224;23;20422;-84
2021/07/14 08:16:12;;;;;;;3.70;3.43;;;17.50;99.90;;;;;;6219062;23;20769;-84
2021/07/14 08:18:40;;;;;;;4.40;4.10;;;17.60;99.90;;;;;;6219036;23;20886;-84
2021/07/14 08:21:07;;;;;;;3.83;3.30;;;17.50;99.90;;;;;;6218566;23;20419;-83
2021/07/14 08:23:34;;;;;;;3.70;3.30;;;17.60;99.90;;;;;;6248684;23;20441;-84
2021/07/14 08:26:00;;;;;;;3.90;3.60;;;17.60;99.90;;;;;;6249460;22;20476;-85
2021/07/14 08:28:27;;;;;;;4.27;3.30;;;17.60;99.90;;;;;;6249410;23;20445;-84
2021/07/14 08:30:54;;;;;;;4.23;3.93;;;17.70;99.90;;;;;;6248885;23;20912;-84
2021/07/14 08:33:21;;;;;;;3.57;3.37;;;17.80;99.90;;;;;;6249035;23;20418;-84
2021/07/14 08:35:49;;;;;;;4.00;3.70;;;17.70;99.90;;;;;;6248370;22;20430;-84
2021/07/14 08:38:15;;;;;;;4.37;3.57;;;17.80;99.90;;;;;;6248781;23;20411;-83
2021/07/14 08:40:43;;;;;;;4.27;3.30;;;17.90;99.90;;;;;;6249024;23;20406;-84
2021/07/14 08:43:11;;;;;;;3.60;3.40;;;17.90;99.90;;;;;;6249488;23;20696;-84
2021/07/14 08:45:38;;;;;;;4.30;3.83;;;18.00;99.90;;;;;;6248405;22;20487;-83
2021/07/14 08:48:08;;;;;;;3.47;3.27;;;18.10;99.90;;;;;;6248089;23;20783;-84
2021/07/14 08:50:42;;;;;;;4.43;3.80;;;18.10;99.90;;;;;;6248598;23;20410;-84
2021/07/14 08:53:14;;;;;;;3.40;3.20;;;18.10;99.90;;;;;;6248388;23;20432;-83
2021/07/14 08:55:43;;;;;;;3.63;3.43;;;18.20;99.90;;;;;;6249716;22;20427;-84
2021/07/14 08:58:14;;;;;;;4.97;4.50;;;18.20;99.90;;;;;;6249427;23;20916;-83
2021/07/14 09:00:41;;;;;;;4.70;4.30;;;18.20;99.90;;;;;;6249264;23;20419;-83
2021/07/14 09:03:08;;;;;;;4.00;3.67;;;18.30;99.90;;;;;;6250112;23;20417;-84
2021/07/14 09:25:49;;;;;;;3.80;3.53;;;18.60;99.90;;;;;;6134914;23;20420;-83
2021/07/14 09:31:31;;;;;;;5.30;4.37;;;18.80;99.90;;;;;;6188352;23;20539;-85
2021/07/14 09:33:59;;;;;;;4.20;3.90;;;18.90;99.90;;;;;;6250541;23;20424;-84
2021/07/14 09:36:33;;;;;;;4.40;3.57;;;19.00;99.90;;;;;;6249848;22;20436;-83
2021/07/14 09:39:05;;;;;;;3.80;3.60;;;18.90;99.90;;;;;;6249576;23;20395;-83
2021/07/14 09:41:37;;;;;;;4.37;3.97;;;19.00;99.90;;;;;;6248989;23;20399;-83
2021/07/14 09:44:04;;;;;;;3.93;3.63;;;19.10;99.90;;;;;;6250495;23;20402;-83
2021/07/14 09:46:31;;;;;;;4.70;3.40;;;19.10;99.90;;;;;;6251051;22;20443;-84
2021/07/14 09:48:58;;;;;;;4.53;4.23;;;19.10;99.90;;;;;;6249615;23;20976;-82
2021/07/14 09:51:25;;;;;;;3.33;3.13;;;19.20;99.90;;;;;;6248956;23;20408;-83
2021/07/14 10:17:40;;;;;;;4.13;3.83;;;20.60;99.90;;;;;;6100440;23;20744;-84
2021/07/14 10:20:56;;;;;;;3.37;2.93;;;20.70;99.90;;;;;;6100211;23;20408;-84
2021/07/14 10:23:23;;;;;;;4.43;3.57;;;20.80;99.90;;;;;;6181974;23;20502;-82
2021/07/14 10:26:08;;;;;;;3.23;3.03;;;20.90;99.90;;;;;;6249732;22;20421;-82
2021/07/14 10:28:45;;;;;;;3.37;3.17;;;20.90;99.90;;;;;;6250270;23;20389;-83
2021/07/14 10:31:30;;;;;;;4.23;3.17;;;21.00;99.90;;;;;;6251122;23;20811;-83
2021/07/14 10:34:08;;;;;;;2.27;2.17;;;21.10;99.90;;;;;;6250649;23;20475;-82
2021/07/14 10:36:46;;;;;;;2.87;2.67;;;21.20;99.90;;;;;;6250137;22;20494;-83
2021/07/14 10:42:30;;;;;;;2.80;2.60;;;21.60;99.90;;;;;;6238067;23;20789;-83
2021/07/14 10:45:36;;;;;;;4.13;2.50;;;21.70;99.90;;;;;;6250179;22;20423;-83
2021/07/14 10:51:51;;;;;;;;;;;;;;;;;;;;;
2021/07/14 10:54:42;;;;;;;3.50;2.87;;;22.20;99.90;;;;;;6239786;23;20905;-83
2021/07/14 11:07:21;;;;;;;2.03;1.60;;;23.00;98.60;;;;;;6213463;23;20435;-83
2021/07/14 11:10:59;;;;;;;;;;;;;;;;;;;;;
2021/07/14 11:18:03;;;;;;;;;;;;;;;;;;;;;
2021/07/14 11:32:07;;;;;;;;;;;;;;;;;;;;;
2021/07/14 16:54:42;;;;;;;1.43;1.07;;;26.00;80.50;;;;;;5985522;23;20441;-83
2021/07/14 16:57:41;;;;;;;;;;;;;;;;;;;;;
2021/07/14 17:01:11;;;;;;;;;;;;;;;;;;;;;
2021/07/14 17:07:35;;;;;;;;;;;;;;;;;;;;;
2021/07/14 17:23:19;;;;;;;;;;;;;;;;;;;;;
2021/07/14 17:26:38;;;;;;;1.50;0.73;;;24.30;87.20;;;;;;6212793;23;20639;-82
2021/07/14 17:29:37;;;;;;;0.87;0.70;;;24.60;86.40;;;;;;6214796;23;20441;-83
2021/07/14 17:32:43;;;;;;;0.77;0.77;;;24.40;86.70;;;;;;6221501;23;20409;-83
2021/07/14 17:35:26;;;;;;;0.70;0.70;;;24.20;87.00;;;;;;6209565;23;20431;-83
2021/07/14 17:38:26;;;;;;;1.10;0.70;;;23.90;87.90;;;;;;6214661;23;20420;-83
2021/07/14 17:41:32;;;;;;;;;;;;;;;;;;;;;
2021/07/14 17:44:52;;;;;;;1.00;1.00;;;23.50;90.00;;;;;;6220822;23;20472;-83
2021/07/14 17:55:00;;;;;;;1.03;0.70;;;22.70;91.60;;;;;;6111189;23;20413;-85
2021/07/14 17:57:50;;;;;;;;;;;;;;;;;;;;;
2021/07/14 18:00:39;;;;;;;0.90;0.70;;;22.10;92.40;;;;;;6145855;23;20440;-85
2021/07/14 18:03:08;;;;;;;0.97;0.73;;;21.90;92.70;;;;;;6255569;22;20446;-83
2021/07/14 18:08:34;;;;;;;1.90;0.70;;;21.50;93.80;;;;;;6238439;23;20483;-84
2021/07/14 18:11:27;;;;;;;0.70;0.70;;;21.30;94.10;;;;;;6251431;23;20392;-84
2021/07/14 18:17:28;;;;;;;0.90;0.90;;;21.10;94.80;;;;;;6101575;23;20424;-82
2021/07/14 18:19:59;;;;;;;1.80;0.77;;;20.90;95.30;;;;;;6250620;23;20431;-82
2021/07/14 18:22:33;;;;;;;0.63;0.63;;;20.80;95.40;;;;;;6253841;22;20392;-84
2021/07/14 18:25:13;;;;;;;1.30;0.80;;;20.60;95.50;;;;;;6255444;23;20419;-86
2021/07/14 18:36:41;;;;;;;0.87;0.87;;;20.10;96.90;;;;;;6102798;23;20494;-84
2021/07/14 18:39:16;;;;;;;1.30;0.90;;;20.00;97.30;;;;;;6113074;23;20462;-85
2021/07/14 18:42:08;;;;;;;2.67;1.03;;;19.90;97.60;;;;;;6132764;23;20440;-85
2021/07/14 18:44:39;;;;;;;0.90;0.90;;;19.80;97.90;;;;;;6119253;23;20483;-85
2021/07/14 18:50:41;;;;;;;0.70;0.70;;;19.70;98.20;;;;;;6112215;23;20495;-84
2021/07/14 18:53:19;;;;;;;1.33;1.23;;;19.70;98.60;;;;;;6132033;23;20878;-84
2021/07/14 18:59:17;;;;;;;0.93;0.90;;;19.60;99.30;;;;;;6127148;23;20430;-84
2021/07/14 19:01:54;;;;;;;1.83;1.53;;;19.50;99.60;;;;;;6130611;23;20392;-83
2021/07/14 19:04:31;;;;;;;0.60;0.60;;;19.50;99.60;;;;;;6239624;23;20809;-83
2021/07/14 19:07:07;;;;;;;0.80;0.80;;;19.40;99.70;;;;;;6265360;23;20426;-83
2021/07/14 19:09:34;;;;;;;0.90;0.90;;;19.30;99.90;;;;;;6254486;23;20414;-84
2021/07/14 19:12:22;;;;;;;;;;;;;;;;;;;;;
2021/07/14 19:15:10;;;;;;;0.63;0.60;;;19.10;99.90;;;;;;6237322;23;20644;-83
2021/07/14 19:17:50;;;;;;;1.00;0.80;;;19.00;99.90;;;;;;6250730;23;20393;-84
2021/07/14 19:20:32;;;;;;;0.87;0.83;;;18.90;99.90;;;;;;6250876;23;20400;-84
2021/07/14 19:54:25;;;;;;;1.43;0.60;;;18.00;99.90;;;;;;5844326;24;20508;-86
2021/07/14 19:56:51;;;;;;;0.80;0.80;;;18.00;99.90;;;;;;6062937;23;20719;-85
2021/07/14 19:59:18;;;;;;;0.50;0.50;;;17.90;99.90;;;;;;6195881;23;20413;-86
2021/07/14 20:01:45;;;;;;;0.60;0.60;;;17.80;99.90;;;;;;6232000;23;20406;-86
2021/07/14 20:04:13;;;;;;;0.77;0.77;;;17.80;99.90;;;;;;6231883;23;20454;-86
2021/07/14 20:06:40;;;;;;;0.80;0.80;;;17.70;99.90;;;;;;6233286;23;20420;-86
2021/07/14 20:09:07;;;;;;;0.63;0.63;;;17.70;99.90;;;;;;6231445;23;20411;-86
2021/07/14 20:11:35;;;;;;;0.70;0.70;;;17.70;99.90;;;;;;6232930;23;20467;-85
2021/07/14 20:14:02;;;;;;;1.13;0.87;;;17.70;99.90;;;;;;6232024;23;20493;-86
2021/07/14 20:16:28;;;;;;;0.50;0.50;;;17.60;99.90;;;;;;6231868;23;20415;-86
2021/07/14 20:18:55;;;;;;;0.60;0.57;;;17.50;99.90;;;;;;6232604;23;20403;-86
2021/07/14 20:21:22;;;;;;;0.73;0.67;;;17.50;99.90;;;;;;6232580;23;20424;-85
2021/07/14 20:23:49;;;;;;;0.57;0.57;;;17.50;99.90;;;;;;6232271;23;20507;-86
2021/07/14 20:26:15;;;;;;;0.60;0.60;;;17.50;99.90;;;;;;6232475;23;20412;-85
2021/07/14 20:28:43;;;;;;;0.90;0.90;;;17.40;99.90;;;;;;6233419;23;20414;-84
2021/07/14 20:31:10;;;;;;;1.43;0.90;;;17.40;99.90;;;;;;6232229;23;20421;-84
2021/07/14 20:33:38;;;;;;;0.70;0.70;;;17.30;99.90;;;;;;6233447;23;20430;-84
2021/07/14 20:36:05;;;;;;;0.70;0.70;;;17.20;99.90;;;;;;6233118;23;20408;-84
2021/07/14 20:38:32;;;;;;;0.80;0.70;;;17.10;99.90;;;;;;6233468;23;20416;-83
2021/07/14 20:40:59;;;;;;;0.73;0.70;;;17.10;99.90;;;;;;6234227;23;20426;-84
2021/07/14 20:43:27;;;;;;;0.63;0.63;;;17.10;99.90;;;;;;6233264;23;20455;-82
2021/07/14 20:45:55;;;;;;;0.40;0.40;;;17.10;99.90;;;;;;6234321;23;20924;-83
2021/07/14 20:48:22;;;;;;;0.90;0.90;;;17.00;99.90;;;;;;6234514;23;20399;-83
2021/07/14 20:50:51;;;;;;;2.47;0.60;;;17.00;99.90;;;;;;6234048;23;20406;-84
2021/07/14 20:53:18;;;;;;;0.57;0.57;;;17.00;99.90;;;;;;6247883;22;20497;-84
2021/07/14 20:55:45;;;;;;;0.60;0.60;;;16.90;99.90;;;;;;6264761;23;20406;-83
2021/07/14 20:58:13;;;;;;;0.90;0.90;;;16.90;99.90;;;;;;6265425;23;20405;-84
2021/07/14 21:00:41;;;;;;;0.73;0.70;;;16.90;99.90;;;;;;6264735;23;20410;-84
2021/07/14 21:03:10;;;;;;;0.63;0.63;;;16.80;99.90;;;;;;6264558;22;20499;-84
2021/07/14 21:05:37;;;;;;;0.57;0.57;;;16.80;99.90;;;;;;6264839;23;20452;-84
2021/07/14 21:08:05;;;;;;;0.67;0.67;;;16.80;99.90;;;;;;6265669;23;20405;-85
2021/07/14 21:10:33;;;;;;;0.80;0.80;;;16.80;99.90;;;;;;6265278;23;20489;-84
2021/07/14 21:13:01;;;;;;;2.10;1.03;;;16.80;99.90;;;;;;6264663;22;20433;-84
2021/07/14 21:15:28;;;;;;;0.90;0.90;;;16.80;99.90;;;;;;6266587;23;20405;-85
2021/07/14 21:17:55;;;;;;;0.90;0.87;;;16.80;99.90;;;;;;6266219;23;20435;-84
2021/07/14 21:20:23;;;;;;;1.10;1.00;;;16.70;99.90;;;;;;6264385;23;20412;-84
2021/07/14 21:22:51;;;;;;;1.67;1.27;;;16.80;99.90;;;;;;6264191;22;20432;-84
2021/07/14 21:25:19;;;;;;;1.40;1.00;;;16.80;99.90;;;;;;6265703;23;20465;-86
2021/07/14 21:27:47;;;;;;;1.23;1.03;;;16.70;99.90;;;;;;6265802;23;20409;-85
2021/07/14 21:30:15;;;;;;;1.97;1.03;;;16.80;99.90;;;;;;6265929;23;20437;-85
2021/07/14 21:32:42;;;;;;;1.87;1.30;;;16.80;99.90;;;;;;6263855;22;20435;-86
2021/07/14 21:35:10;;;;;;;1.57;1.20;;;16.70;99.90;;;;;;6264636;23;20767;-85
2021/07/14 21:37:39;;;;;;;0.90;0.90;;;16.70;99.90;;;;;;6263325;23;20412;-85
2021/07/14 21:40:08;;;;;;;1.00;0.90;;;16.70;99.90;;;;;;6264268;23;20436;-85
2021/07/14 21:42:34;;;;;;;1.03;0.93;;;16.60;99.90;;;;;;6265446;22;20415;-85
2021/07/14 21:45:01;;;;;;;0.90;0.90;;;16.60;99.90;;;;;;6266540;23;20441;-85
2021/07/14 21:47:28;;;;;;;1.30;1.23;;;16.60;99.90;;;;;;6266698;23;20414;-86
2021/07/14 21:49:54;;;;;;;1.00;0.97;;;16.60;99.90;;;;;;6265886;23;20410;-84
2021/07/14 21:52:21;;;;;;;0.93;0.93;;;16.50;99.90;;;;;;6262486;23;20479;-86
2021/07/14 21:54:49;;;;;;;0.60;0.60;;;16.50;99.90;;;;;;6264841;23;20396;-86
2021/07/14 21:57:16;;;;;;;1.37;0.77;;;16.50;99.90;;;;;;6264279;23;20405;-86
2021/07/14 21:59:42;;;;;;;0.70;0.70;;;16.50;99.90;;;;;;6264625;23;20408;-86
2021/07/14 22:02:09;;;;;;;0.93;0.90;;;16.50;99.90;;;;;;6264188;23;20410;-86
2021/07/14 22:04:37;;;;;;;0.70;0.60;;;16.40;99.90;;;;;;6263868;22;20772;-85
2021/07/14 22:07:04;;;;;;;1.03;1.03;;;16.40;99.90;;;;;;6264738;23;20393;-86
2021/07/14 22:09:30;;;;;;;0.53;0.53;;;16.40;99.90;;;;;;6265562;23;20408;-85
2021/07/14 22:12:04;;;;;;;0.50;0.50;;;16.40;99.90;;;;;;6264996;23;20415;-86
2021/07/14 22:14:31;;;;;;;0.60;0.60;;;16.30;99.90;;;;;;6265065;22;20417;-86
2021/07/14 22:16:58;;;;;;;0.70;0.60;;;16.30;99.90;;;;;;6265220;23;20404;-85
2021/07/14 22:19:25;;;;;;;0.53;0.53;;;16.20;99.90;;;;;;6265433;23;20487;-85
2021/07/14 22:21:52;;;;;;;0.73;0.70;;;16.20;99.90;;;;;;6265058;23;20922;-84
2021/07/14 22:24:19;;;;;;;0.87;0.47;;;16.20;99.90;;;;;;6266045;22;20446;-84
2021/07/14 22:26:46;;;;;;;0.60;0.60;;;16.20;99.90;;;;;;6266182;23;20405;-84
2021/07/14 22:29:14;;;;;;;0.97;0.57;;;16.20;99.90;;;;;;6266397;23;20401;-83
2021/07/14 22:31:43;;;;;;;0.70;0.60;;;16.20;99.90;;;;;;6263782;23;20408;-84
2021/07/14 22:34:12;;;;;;;0.70;0.70;;;16.20;99.90;;;;;;6261270;22;21167;-83
2021/07/14 22:36:39;;;;;;;1.00;1.00;;;16.20;99.90;;;;;;6252900;23;20743;-83
2021/07/14 22:39:07;;;;;;;0.60;0.60;;;16.10;99.90;;;;;;6252837;23;20412;-84
2021/07/14 22:41:35;;;;;;;0.83;0.77;;;16.10;99.90;;;;;;6253361;23;20416;-84
2021/07/14 22:44:05;;;;;;;0.63;0.63;;;16.10;99.90;;;;;;6234278;22;20457;-82
2021/07/14 22:46:33;;;;;;;1.13;0.60;;;16.10;99.90;;;;;;6222964;23;20409;-81
2021/07/14 22:49:00;;;;;;;0.50;0.50;;;16.10;99.90;;;;;;6223002;23;20410;-81
2021/07/14 22:51:27;;;;;;;1.00;0.73;;;16.10;99.90;;;;;;6222768;23;20429;-81
2021/07/14 22:53:54;;;;;;;0.90;0.90;;;16.10;99.90;;;;;;6223035;23;20804;-81
2021/07/14 22:56:21;;;;;;;0.40;0.40;;;16.00;99.90;;;;;;6222658;23;20421;-81
2021/07/14 22:58:48;;;;;;;0.50;0.50;;;16.00;99.90;;;;;;6222844;23;20406;-84
2021/07/14 23:01:16;;;;;;;0.50;0.40;;;16.10;99.90;;;;;;6222597;23;20449;-84
2021/07/14 23:03:44;;;;;;;1.17;0.70;;;16.10;99.90;;;;;;6222321;23;20436;-83
2021/07/14 23:06:11;;;;;;;0.60;0.60;;;16.10;99.90;;;;;;6223404;23;20412;-83
2021/07/14 23:08:38;;;;;;;0.50;0.50;;;16.20;99.90;;;;;;6222843;23;20420;-83
2021/07/14 23:11:05;;;;;;;0.80;0.80;;;16.20;99.90;;;;;;6222977;23;20414;-83
2021/07/14 23:13:32;;;;;;;0.80;0.70;;;16.20;99.90;;;;;;6221919;23;20435;-83
2021/07/14 23:15:59;;;;;;;1.03;1.03;;;16.30;99.90;;;;;;6222960;23;20441;-83
2021/07/14 23:18:25;;;;;;;0.70;0.60;;;16.30;99.90;;;;;;6223337;23;20410;-83
2021/07/14 23:20:54;;;;;;;0.60;0.60;;;16.30;99.90;;;;;;6222407;23;20404;-83
2021/07/14 23:23:20;;;;;;;0.30;0.30;;;16.30;99.90;;;;;;6222350;23;20427;-83
2021/07/14 23:25:47;;;;;;;0.70;0.60;;;16.40;99.90;;;;;;6222953;23;20412;-83
2021/07/14 23:28:14;;;;;;;0.70;0.63;;;16.40;99.90;;;;;;6223082;23;20417;-83
2021/07/14 23:30:40;;;;;;;0.50;0.40;;;16.30;99.90;;;;;;6222833;23;20414;-83
2021/07/14 23:33:08;;;;;;;1.40;0.60;;;16.30;99.90;;;;;;6222337;23;20429;-83
2021/07/14 23:35:36;;;;;;;0.53;0.37;;;16.30;99.90;;;;;;6222822;23;20444;-83
2021/07/14 23:38:05;;;;;;;1.20;1.00;;;16.40;99.90;;;;;;6222728;23;20444;-83
2021/07/14 23:40:33;;;;;;;2.17;0.80;;;16.40;99.90;;;;;;6222740;23;20413;-83
2021/07/14 23:43:01;;;;;;;0.50;0.50;;;16.40;99.90;;;;;;6225988;23;20434;-83
2021/07/14 23:45:28;;;;;;;1.97;1.23;;;16.40;99.90;;;;;;6253239;23;20395;-83
2021/07/14 23:47:55;;;;;;;0.90;0.67;;;16.50;99.90;;;;;;6252741;23;20413;-83
2021/07/14 23:50:25;;;;;;;1.13;0.53;;;16.50;99.90;;;;;;6253669;23;20417;-83
2021/07/14 23:52:53;;;;;;;0.60;0.60;;;16.50;99.90;;;;;;6252479;22;20503;-83
2021/07/14 23:55:23;;;;;;;1.23;0.70;;;16.50;99.90;;;;;;6252671;23;20446;-83
2021/07/14 23:57:50;;;;;;;0.50;0.50;;;16.40;99.90;;;;;;6252780;23;20406;-83
